Time;durP1;ratioP1;P1;durP2;ratioP2;P2;SDS_P1;SDS_P2;PMS_P1;PMS_P2;Temp;Humidity;BMP_temperature;BMP_pressure;BME280_temperature;BME280_humidity;BME280_pressure;Samples;Min_cycle;Max_cycle;Signal;HPM_P1;HPM_P2
2023/11/25 00:00:11;;;;;;;8.10;4.30;;;;;;;3.08;80.78;97734.35;129658;1271;97984;-78
2023/11/25 00:03:39;;;;;;;8.20;3.80;;;;;;;3.11;80.80;97736.69;129684;1268;99052;-78
2023/11/25 00:06:44;;;;;;;7.50;3.90;;;;;;;3.13;80.87;97738.36;129601;1268;98026;-79
2023/11/25 00:09:50;;;;;;;8.60;4.30;;;;;;;3.11;80.91;97742.05;129590;1271;98021;-78
2023/11/25 00:12:56;;;;;;;9.30;4.20;;;;;;;3.10;80.93;97747.63;129611;1280;99186;-78
2023/11/25 00:16:01;;;;;;;7.80;4.00;;;;;;;3.07;80.85;97746.27;129631;1270;98084;-79
2023/11/25 00:19:07;;;;;;;8.10;4.20;;;;;;;3.02;81.08;97743.63;129589;1271;97996;-80
2023/11/25 00:22:13;;;;;;;8.40;4.10;;;;;;;3.03;81.01;97748.66;129867;1270;99076;-79
2023/11/25 00:25:19;;;;;;;7.80;3.70;;;;;;;3.05;80.89;97750.66;129596;1269;98067;-78
2023/11/25 00:28:25;;;;;;;8.50;4.10;;;;;;;3.09;81.09;97751.25;129600;1271;98035;-78
2023/11/25 00:31:30;;;;;;;7.70;3.90;;;;;;;3.16;80.88;97746.13;129658;1269;98052;-78
2023/11/25 00:34:36;;;;;;;8.10;4.00;;;;;;;3.22;81.07;97743.58;129555;1270;98004;-78
2023/11/25 00:37:42;;;;;;;8.50;4.10;;;;;;;3.23;80.89;97741.84;129577;1268;99052;-77
2023/11/25 00:40:49;;;;;;;8.90;4.10;;;;;;;3.23;80.76;97740.77;129600;1268;99049;-77
2023/11/25 00:43:54;;;;;;;8.60;4.50;;;;;;;3.24;80.86;97740.02;129600;1265;98019;-77
2023/11/25 00:47:02;;;;;;;8.00;4.10;;;;;;;3.24;80.95;97738.64;129582;1270;97979;-77
2023/11/25 00:50:10;;;;;;;7.70;4.30;;;;;;;3.24;80.95;97739.86;129608;1268;98007;-77
2023/11/25 00:53:15;;;;;;;9.40;5.00;;;;;;;3.22;81.07;97741.11;129670;1271;98364;-77
2023/11/25 00:56:21;;;;;;;9.90;5.00;;;;;;;3.19;80.99;97742.66;129625;1271;98765;-76
2023/11/25 00:59:27;;;;;;;9.70;4.10;;;;;;;3.17;80.98;97748.70;129524;1285;98100;-80
2023/11/25 01:02:32;;;;;;;6.50;3.60;;;;;;;3.20;81.18;97752.98;129516;1270;99186;-77
2023/11/25 01:05:38;;;;;;;8.30;4.20;;;;;;;3.24;81.25;97755.60;129524;1271;98173;-78
2023/11/25 01:08:44;;;;;;;10.00;4.30;;;;;;;3.29;81.34;97756.88;129624;1271;99282;-78
2023/11/25 01:11:49;;;;;;;9.20;4.70;;;;;;;3.30;81.31;97766.25;129535;1270;98096;-77
2023/11/25 01:14:55;;;;;;;7.30;4.10;;;;;;;3.30;81.55;97767.65;129598;1271;98665;-77
2023/11/25 01:18:00;;;;;;;7.60;4.30;;;;;;;3.29;81.63;97772.29;129602;1271;97991;-78
2023/11/25 01:21:07;;;;;;;8.10;4.10;;;;;;;3.26;81.65;97773.92;129677;1271;98093;-78
2023/11/25 01:24:12;;;;;;;8.70;3.90;;;;;;;3.19;81.76;97775.41;129835;1270;97971;-77
2023/11/25 01:27:18;;;;;;;7.50;3.90;;;;;;;3.14;81.79;97778.87;129515;1270;99348;-79
2023/11/25 01:30:24;;;;;;;7.50;3.50;;;;;;;3.12;81.88;97776.48;129680;1269;99193;-77
2023/11/25 01:33:29;;;;;;;10.50;5.90;;;;;;;3.02;82.10;97773.62;129818;1272;98309;-78
2023/11/25 01:36:35;;;;;;;9.70;4.40;;;;;;;2.86;82.26;97772.44;129600;1271;98024;-79
2023/11/25 01:39:41;;;;;;;8.60;4.30;;;;;;;2.85;82.30;97783.70;129642;1265;98006;-80
2023/11/25 01:42:47;;;;;;;5.40;3.60;;;;;;;2.81;82.27;97785.77;129589;1270;98045;-79
2023/11/25 01:45:56;;;;;;;5.50;3.40;;;;;;;2.67;82.71;97794.42;129644;1271;98347;-78
2023/11/25 01:49:10;;;;;;;5.40;3.10;;;;;;;2.47;82.69;97800.59;129668;1270;98082;-78
2023/11/25 01:52:17;;;;;;;5.80;3.20;;;;;;;2.19;81.57;97804.02;129727;1269;98119;-78
2023/11/25 01:55:24;;;;;;;4.50;2.50;;;;;;;2.02;81.66;97812.17;129595;1270;98076;-78
2023/11/25 01:58:32;;;;;;;3.70;2.50;;;;;;;1.85;81.21;97818.46;129609;1265;98751;-79
2023/11/25 02:01:38;;;;;;;3.00;1.80;;;;;;;1.75;80.81;97821.00;129416;1271;98062;-78
2023/11/25 02:04:44;;;;;;;2.70;2.20;;;;;;;1.71;80.64;97821.25;129691;1270;98774;-79
2023/11/25 02:07:49;;;;;;;2.90;2.10;;;;;;;1.74;80.89;97817.98;129754;1267;99140;-79
2023/11/25 02:10:55;;;;;;;4.40;2.10;;;;;;;1.73;80.21;97822.25;129655;1265;98049;-79
2023/11/25 02:14:00;;;;;;;3.10;2.00;;;;;;;1.71;80.74;97824.38;129597;1271;98126;-78
2023/11/25 02:17:06;;;;;;;3.60;2.30;;;;;;;1.73;80.37;97830.10;129653;1266;98687;-78
2023/11/25 02:20:13;;;;;;;4.40;2.50;;;;;;;1.67;80.29;97830.39;129704;1270;99189;-79
2023/11/25 02:23:22;;;;;;;4.80;2.70;;;;;;;1.64;80.46;97831.08;129881;1267;99154;-78
2023/11/25 02:26:29;;;;;;;3.70;2.10;;;;;;;1.67;80.68;97831.11;129563;1271;99050;-79
2023/11/25 02:29:35;;;;;;;3.40;2.00;;;;;;;1.72;80.32;97834.10;129515;1268;97979;-78
2023/11/25 02:32:41;;;;;;;6.60;2.20;;;;;;;1.71;80.10;97833.16;129591;1270;98290;-77
2023/11/25 02:35:47;;;;;;;5.10;2.40;;;;;;;1.70;80.09;97836.23;129592;1270;98125;-77
2023/11/25 02:38:53;;;;;;;3.40;2.00;;;;;;;1.70;80.14;97838.02;129609;1269;98623;-75
2023/11/25 02:41:58;;;;;;;3.80;1.90;;;;;;;1.69;79.80;97835.59;129611;1271;98006;-78
2023/11/25 02:45:06;;;;;;;2.60;1.80;;;;;;;1.69;79.67;97851.07;129522;1271;98755;-79
2023/11/25 02:48:15;;;;;;;2.80;2.10;;;;;;;1.65;79.58;97855.50;129662;1267;98126;-79
2023/11/25 02:51:21;;;;;;;4.10;2.00;;;;;;;1.60;79.56;97860.81;129594;1270;98791;-80
2023/11/25 02:54:27;;;;;;;2.00;1.50;;;;;;;1.47;78.97;97873.90;129554;1269;99155;-77
2023/11/25 02:57:33;;;;;;;3.20;1.90;;;;;;;1.43;79.79;97877.33;129593;1271;98003;-79
2023/11/25 03:00:40;;;;;;;2.60;1.60;;;;;;;1.46;79.79;97875.50;129609;1270;99049;-79
2023/11/25 03:03:48;;;;;;;5.00;2.10;;;;;;;1.53;79.95;97874.80;129623;1266;98066;-79
2023/11/25 03:06:53;;;;;;;2.90;1.90;;;;;;;1.61;79.90;97878.86;129647;1268;99043;-79
2023/11/25 03:09:59;;;;;;;3.10;2.00;;;;;;;1.65;79.54;97879.02;129622;1271;99590;-80
2023/11/25 03:13:04;;;;;;;3.70;1.90;;;;;;;1.60;79.74;97881.98;129593;1269;98060;-78
2023/11/25 03:16:11;;;;;;;2.40;1.90;;;;;;;1.60;80.03;97880.68;129573;1271;97967;-78
2023/11/25 03:19:18;;;;;;;3.40;2.20;;;;;;;1.62;79.97;97886.35;129638;1271;98484;-77
2023/11/25 03:22:24;;;;;;;4.20;2.50;;;;;;;1.55;80.08;97893.11;129853;1270;98125;-78
2023/11/25 03:25:31;;;;;;;5.00;2.20;;;;;;;1.49;80.21;97893.36;129445;1271;98007;-78
2023/11/25 03:28:37;;;;;;;5.00;2.70;;;;;;;1.52;80.34;97895.87;129600;1274;97993;-78
2023/11/25 03:31:45;;;;;;;3.90;2.30;;;;;;;1.55;80.41;97898.17;129542;1271;98023;-77
2023/11/25 03:34:50;;;;;;;6.00;2.70;;;;;;;1.68;80.61;97901.48;129610;1270;99310;-79
2023/11/25 03:37:56;;;;;;;4.30;2.30;;;;;;;1.80;80.53;97902.21;129559;1270;98000;-79
2023/11/25 03:41:01;;;;;;;4.40;2.50;;;;;;;1.84;80.37;97903.08;129521;1271;98030;-79
2023/11/25 03:44:07;;;;;;;3.80;2.60;;;;;;;1.73;80.52;97903.96;129566;1270;97988;-79
2023/11/25 03:47:13;;;;;;;4.10;2.20;;;;;;;1.66;80.87;97908.46;129485;1272;97978;-79
2023/11/25 03:50:19;;;;;;;4.10;2.70;;;;;;;1.62;81.19;97911.06;129553;1268;98466;-78
2023/11/25 03:53:24;;;;;;;5.80;3.20;;;;;;;1.51;81.77;97914.04;129569;1280;98052;-79
2023/11/25 03:56:30;;;;;;;3.30;2.30;;;;;;;1.39;82.21;97919.08;129524;1282;97972;-77
2023/11/25 03:59:35;;;;;;;4.10;2.50;;;;;;;1.35;82.22;97919.29;129514;1274;98007;-78
2023/11/25 04:02:40;;;;;;;3.60;2.50;;;;;;;1.32;83.21;97920.67;129602;1267;98042;-78
2023/11/25 04:05:46;;;;;;;5.40;2.40;;;;;;;1.34;83.43;97922.05;129585;1271;98023;-77
2023/11/25 04:08:51;;;;;;;3.90;2.40;;;;;;;1.39;83.35;97928.34;129614;1271;98490;-78
2023/11/25 04:11:57;;;;;;;4.00;2.50;;;;;;;1.33;83.30;97932.40;129588;1269;98129;-79
2023/11/25 04:15:04;;;;;;;4.20;2.60;;;;;;;1.26;83.39;97933.17;129546;1271;98621;-79
2023/11/25 04:18:09;;;;;;;4.10;2.40;;;;;;;1.16;84.06;97936.70;129568;1270;98062;-78
2023/11/25 04:21:15;;;;;;;3.40;2.20;;;;;;;1.11;84.34;97939.17;129769;1267;99182;-79
2023/11/25 04:24:22;;;;;;;3.10;2.30;;;;;;;1.05;85.30;97945.02;129715;1269;97998;-79
2023/11/25 04:27:29;;;;;;;3.40;2.60;;;;;;;1.01;85.55;97944.21;129645;1271;98008;-79
2023/11/25 04:30:35;;;;;;;17.80;6.80;;;;;;;0.92;86.54;97944.64;129595;1278;98009;-80
2023/11/25 04:33:40;;;;;;;5.10;2.70;;;;;;;0.84;86.41;97951.04;129796;1271;98033;-79
2023/11/25 04:36:46;;;;;;;10.50;5.40;;;;;;;0.80;86.57;97953.00;129577;1269;98044;-78
2023/11/25 04:39:51;;;;;;;8.50;4.80;;;;;;;0.78;87.50;97958.42;129616;1269;99163;-79
2023/11/25 04:42:57;;;;;;;6.80;3.90;;;;;;;0.77;88.17;97960.31;129599;1270;99183;-79
2023/11/25 04:46:04;;;;;;;5.50;3.00;;;;;;;0.70;90.12;97967.79;129605;1271;98090;-80
2023/11/25 04:49:10;;;;;;;5.00;2.70;;;;;;;0.66;89.64;97971.71;129598;1269;98089;-78
2023/11/25 04:52:15;;;;;;;14.20;7.50;;;;;;;0.52;90.34;97969.33;129603;1271;99186;-78
2023/11/25 04:55:27;;;;;;;15.80;6.60;;;;;;;0.46;90.66;97975.48;129596;1271;98795;-78
2023/11/25 04:58:33;;;;;;;3.90;2.50;;;;;;;0.42;92.68;97978.27;129582;1274;97999;-78
2023/11/25 05:01:39;;;;;;;5.00;3.50;;;;;;;0.36;92.30;97985.36;129591;1271;98074;-77
2023/11/25 05:04:44;;;;;;;7.10;5.20;;;;;;;0.35;92.55;97986.88;129611;1269;99157;-78
2023/11/25 05:07:50;;;;;;;28.30;15.10;;;;;;;0.30;93.32;97994.85;129601;1270;99226;-78
2023/11/25 05:10:56;;;;;;;8.10;4.30;;;;;;;0.30;92.96;97999.77;129591;1271;97973;-78
2023/11/25 05:14:02;;;;;;;5.20;3.50;;;;;;;0.29;92.08;98008.23;129583;1270;97971;-78
2023/11/25 05:17:07;;;;;;;8.70;4.50;;;;;;;0.33;93.83;98013.81;129585;1267;98005;-78
2023/11/25 05:20:15;;;;;;;19.70;7.30;;;;;;;0.34;92.75;98017.70;129621;1278;98026;-79
2023/11/25 05:23:21;;;;;;;82.00;23.70;;;;;;;0.38;92.72;98024.69;129812;1271;97993;-78
2023/11/25 05:26:27;;;;;;;9.50;5.00;;;;;;;0.39;92.58;98031.94;129544;1280;98067;-78
2023/11/25 05:29:32;;;;;;;80.20;26.90;;;;;;;0.37;91.88;98036.13;129507;1284;98280;-78
2023/11/25 05:32:38;;;;;;;8.00;4.50;;;;;;;0.41;92.42;98042.95;129584;1278;97962;-78
2023/11/25 05:35:43;;;;;;;12.00;5.80;;;;;;;0.41;92.88;98045.21;129606;1272;97987;-75
2023/11/25 05:38:49;;;;;;;88.30;28.90;;;;;;;0.40;92.47;98050.89;129644;1267;98695;-78
2023/11/25 05:41:55;;;;;;;163.10;40.10;;;;;;;0.43;92.37;98058.15;129593;1267;99117;-77
2023/11/25 05:45:01;;;;;;;61.20;21.30;;;;;;;0.43;92.11;98065.00;129844;1278;99157;-77
2023/11/25 05:48:07;;;;;;;30.70;15.70;;;;;;;0.43;92.51;98073.42;129511;1267;97991;-76
2023/11/25 05:51:12;;;;;;;113.40;38.80;;;;;;;0.47;91.69;98079.29;129535;1270;97984;-77
2023/11/25 05:54:18;;;;;;;167.90;53.10;;;;;;;0.55;91.41;98085.68;129559;1272;97969;-77
2023/11/25 05:57:24;;;;;;;45.50;17.40;;;;;;;0.59;91.28;98090.05;129501;1274;97998;-77
2023/11/25 06:00:30;;;;;;;27.40;14.10;;;;;;;0.62;91.85;98099.58;129708;1278;99295;-76
2023/11/25 06:03:35;;;;;;;7.00;4.90;;;;;;;0.55;92.59;98112.36;129523;1269;99075;-78
2023/11/25 06:06:41;;;;;;;7.20;4.90;;;;;;;0.48;92.95;98117.02;129608;1279;98573;-76
2023/11/25 06:09:47;;;;;;;11.10;6.60;;;;;;;0.45;93.11;98118.84;129707;1266;99070;-76
2023/11/25 06:12:52;;;;;;;8.60;6.00;;;;;;;0.48;92.75;98127.88;129609;1270;97965;-75
2023/11/25 06:15:58;;;;;;;45.80;23.10;;;;;;;0.47;92.74;98130.02;129688;1267;98067;-75
2023/11/25 06:19:04;;;;;;;13.00;7.80;;;;;;;0.52;91.92;98136.02;129548;1280;98070;-76
2023/11/25 06:22:10;;;;;;;15.40;8.60;;;;;;;0.55;92.07;98138.34;129724;1270;98000;-75
2023/11/25 06:25:15;;;;;;;55.40;22.70;;;;;;;0.53;93.49;98146.79;129737;1270;98011;-75
2023/11/25 06:28:23;;;;;;;73.60;37.30;;;;;;;0.48;93.85;98147.45;129623;1270;98071;-74
2023/11/25 06:31:29;;;;;;;20.80;11.60;;;;;;;0.50;93.62;98140.05;129580;1270;98013;-76
2023/11/25 06:34:35;;;;;;;17.50;9.10;;;;;;;0.50;93.49;98143.20;129617;1270;98001;-75
2023/11/25 06:37:40;;;;;;;10.60;6.60;;;;;;;0.47;93.58;98144.54;129748;1278;97991;-75
2023/11/25 06:40:47;;;;;;;15.30;8.70;;;;;;;0.44;93.15;98148.48;129653;1270;99168;-76
2023/11/25 06:43:52;;;;;;;12.80;7.00;;;;;;;0.45;93.91;98160.70;129555;1281;98449;-72
2023/11/25 06:46:58;;;;;;;32.30;16.00;;;;;;;0.42;93.84;98163.25;129612;1280;99062;-74
2023/11/25 06:50:04;;;;;;;17.20;9.10;;;;;;;0.48;93.14;98165.13;129588;1281;99161;-74
2023/11/25 06:53:09;;;;;;;16.20;8.40;;;;;;;0.53;93.13;98172.17;129628;1273;99184;-73
2023/11/25 06:56:16;;;;;;;8.90;6.00;;;;;;;0.49;93.98;98176.38;129546;1280;97988;-74
2023/11/25 06:59:22;;;;;;;11.20;6.80;;;;;;;0.44;93.67;98176.91;129891;1270;98124;-75
2023/11/25 07:02:28;;;;;;;8.10;5.40;;;;;;;0.43;93.91;98180.14;129590;1270;97993;-75
2023/11/25 07:05:34;;;;;;;10.30;5.60;;;;;;;0.47;93.29;98182.73;129600;1267;99065;-75
2023/11/25 07:08:39;;;;;;;46.40;21.20;;;;;;;0.52;92.79;98191.13;129657;1269;99158;-75
2023/11/25 07:11:48;;;;;;;9.60;6.20;;;;;;;0.58;92.61;98188.81;129607;1270;98095;-74
2023/11/25 07:14:54;;;;;;;16.20;8.50;;;;;;;0.58;92.42;98188.13;129602;1267;98057;-74
2023/11/25 07:18:00;;;;;;;29.00;15.10;;;;;;;0.65;92.27;98195.05;129597;1267;99177;-74
2023/11/25 07:21:07;;;;;;;20.20;11.80;;;;;;;0.69;91.91;98201.84;129646;1267;98093;-75
2023/11/25 07:24:12;;;;;;;7.50;4.50;;;;;;;0.78;91.83;98199.91;129672;1270;98110;-74
2023/11/25 07:27:18;;;;;;;10.20;6.80;;;;;;;0.88;91.50;98207.85;129578;1270;98059;-75
2023/11/25 07:30:24;;;;;;;8.90;5.30;;;;;;;0.89;91.05;98215.77;129677;1268;98022;-74
2023/11/25 07:33:30;;;;;;;7.10;3.70;;;;;;;0.79;91.11;98223.70;129607;1269;99324;-74
2023/11/25 07:36:35;;;;;;;11.40;6.20;;;;;;;0.73;91.11;98228.63;129613;1270;99190;-74
2023/11/25 07:39:41;;;;;;;9.30;5.40;;;;;;;0.75;91.18;98233.14;129867;1268;97956;-72
2023/11/25 07:42:48;;;;;;;41.00;25.00;;;;;;;0.82;90.79;98241.47;129614;1268;97971;-71
2023/11/25 07:45:56;;;;;;;40.00;25.10;;;;;;;0.89;90.48;98251.35;129682;1267;97995;-72
2023/11/25 07:49:02;;;;;;;57.60;20.90;;;;;;;0.87;89.87;98251.98;129611;1269;97996;-72
2023/11/25 07:52:08;;;;;;;72.00;32.40;;;;;;;0.87;89.87;98252.73;129886;1270;99161;-72
2023/11/25 07:55:13;;;;;;;36.10;22.80;;;;;;;0.92;89.71;98250.69;129875;1270;98107;-72
2023/11/25 07:58:19;;;;;;;9.70;5.30;;;;;;;0.95;89.18;98256.32;129742;1267;97992;-74
2023/11/25 08:01:26;;;;;;;8.10;5.40;;;;;;;0.91;89.03;98250.92;129591;1274;97965;-73
2023/11/25 08:04:31;;;;;;;8.50;5.20;;;;;;;0.91;89.12;98260.41;132119;1266;98048;-73
2023/11/25 08:07:37;;;;;;;12.10;5.90;;;;;;;0.96;89.13;98266.23;132198;1269;97998;-73
2023/11/25 08:10:42;;;;;;;7.90;5.50;;;;;;;1.06;88.76;98270.95;129746;1279;98759;-73
2023/11/25 08:13:48;;;;;;;19.30;10.30;;;;;;;1.11;88.67;98273.95;129613;1270;98010;-73
2023/11/25 08:16:53;;;;;;;26.80;13.40;;;;;;;1.20;88.15;98270.48;129605;1270;99183;-73
2023/11/25 08:19:59;;;;;;;44.30;23.00;;;;;;;1.20;87.92;98278.23;129633;1269;98760;-73
2023/11/25 08:23:05;;;;;;;17.70;10.00;;;;;;;1.27;88.41;98281.26;129693;1270;98034;-73
2023/11/25 08:26:20;;;;;;;16.80;9.40;;;;;;;1.31;87.80;98279.82;129784;1267;97990;-73
2023/11/25 08:29:26;;;;;;;28.30;16.40;;;;;;;1.35;87.90;98282.77;129639;1267;98063;-74
2023/11/25 08:32:31;;;;;;;66.80;31.80;;;;;;;1.39;87.40;98290.13;129636;1278;98769;-73
2023/11/25 08:35:38;;;;;;;20.40;9.80;;;;;;;1.41;87.82;98291.81;129690;1270;99192;-73
2023/11/25 08:38:44;;;;;;;38.60;22.30;;;;;;;1.55;87.02;98295.84;129595;1270;98068;-72
2023/11/25 08:41:53;;;;;;;12.40;6.50;;;;;;;1.61;87.10;98292.08;129615;1269;99141;-73
2023/11/25 08:45:02;;;;;;;10.80;5.20;;;;;;;1.67;86.50;98294.34;129614;1268;99164;-72
2023/11/25 08:48:08;;;;;;;8.80;4.70;;;;;;;1.66;86.04;98297.63;129791;1270;99154;-72
2023/11/25 08:51:14;;;;;;;17.10;11.10;;;;;;;1.57;85.97;98300.73;129591;1270;99157;-73
2023/11/25 08:54:20;;;;;;;8.00;4.20;;;;;;;1.52;85.60;98310.65;129595;1278;98193;-72
2023/11/25 08:57:26;;;;;;;9.70;4.80;;;;;;;1.52;86.31;98310.77;129561;1270;97984;-72
2023/11/25 09:00:33;;;;;;;43.00;19.30;;;;;;;1.53;86.18;98315.58;129585;1271;99058;-73
2023/11/25 09:03:39;;;;;;;10.10;4.40;;;;;;;1.51;85.35;98317.17;129622;1268;98002;-74
2023/11/25 09:06:46;;;;;;;95.00;45.20;;;;;;;1.44;85.57;98312.97;129593;1271;98650;-73
2023/11/25 09:09:51;;;;;;;8.10;4.20;;;;;;;1.49;85.78;98323.20;129787;1271;98001;-73
2023/11/25 09:12:57;;;;;;;7.80;4.00;;;;;;;1.43;85.19;98320.02;129706;1271;99257;-74
2023/11/25 09:16:03;;;;;;;8.90;4.30;;;;;;;1.38;85.77;98326.42;129546;1267;97974;-74
2023/11/25 09:19:09;;;;;;;9.70;5.20;;;;;;;1.38;86.32;98331.19;129571;1267;98006;-72
2023/11/25 09:22:15;;;;;;;8.30;4.40;;;;;;;1.43;85.96;98336.34;129559;1270;99160;-73
2023/11/25 09:25:21;;;;;;;8.40;5.50;;;;;;;1.37;85.74;98338.85;129591;1270;97986;-73
2023/11/25 09:28:27;;;;;;;9.50;6.40;;;;;;;1.40;86.16;98339.06;129590;1270;98006;-73
2023/11/25 09:31:32;;;;;;;17.20;11.60;;;;;;;1.44;85.70;98339.60;129586;1273;98496;-73
2023/11/25 09:34:38;;;;;;;9.10;5.70;;;;;;;1.52;86.40;98337.27;129588;1270;97993;-73
2023/11/25 09:37:45;;;;;;;14.00;10.70;;;;;;;1.65;86.37;98336.09;129621;1268;99180;-72
2023/11/25 09:40:51;;;;;;;14.40;10.20;;;;;;;1.76;85.76;98340.58;129620;1267;98759;-72
2023/11/25 09:43:57;;;;;;;8.50;5.60;;;;;;;1.74;85.56;98343.13;129613;1268;97987;-73
2023/11/25 09:47:02;;;;;;;8.50;4.40;;;;;;;1.70;85.60;98341.68;129593;1270;98790;-74
2023/11/25 09:50:10;;;;;;;9.90;4.90;;;;;;;1.72;86.19;98340.66;129579;1265;98126;-73
2023/11/25 09:53:28;;;;;;;7.10;4.30;;;;;;;1.71;86.30;98343.93;129685;1281;97966;-74
2023/11/25 09:56:34;;;;;;;31.70;17.00;;;;;;;1.71;86.47;98344.92;129609;1270;99157;-74
2023/11/25 09:59:39;;;;;;;24.50;16.60;;;;;;;1.82;86.63;98340.81;129593;1268;97985;-72
2023/11/25 10:02:46;;;;;;;12.90;7.00;;;;;;;1.97;86.63;98340.80;129681;1267;98969;-72
2023/11/25 10:05:52;;;;;;;8.30;5.30;;;;;;;2.01;86.61;98344.58;129783;1268;99136;-72
2023/11/25 10:08:57;;;;;;;8.40;5.40;;;;;;;1.89;86.98;98346.23;129759;1267;97975;-72
2023/11/25 10:12:03;;;;;;;21.50;11.30;;;;;;;1.72;87.57;98352.89;129799;1267;98697;-72
2023/11/25 10:15:10;;;;;;;22.40;9.40;;;;;;;1.47;88.59;98355.27;129822;1272;98096;-72
2023/11/25 10:18:16;;;;;;;19.30;9.40;;;;;;;1.28;89.64;98356.33;129783;1267;97971;-72
2023/11/25 10:21:21;;;;;;;67.20;35.00;;;;;;;1.20;89.72;98350.19;129697;1270;98020;-76
2023/11/25 10:24:29;;;;;;;77.50;38.00;;;;;;;1.26;89.73;98352.25;129762;1269;99154;-75
2023/11/25 10:27:35;;;;;;;21.80;8.90;;;;;;;1.32;89.24;98360.79;132000;1267;98064;-74
2023/11/25 10:30:41;;;;;;;129.70;46.60;;;;;;;1.30;89.52;98362.73;129742;1267;99174;-73
2023/11/25 10:33:47;;;;;;;83.60;38.10;;;;;;;1.29;89.79;98364.11;129718;1265;98695;-74
2023/11/25 10:36:53;;;;;;;83.30;40.30;;;;;;;1.36;89.48;98367.15;129696;1270;99262;-74
2023/11/25 10:39:59;;;;;;;25.10;13.00;;;;;;;1.45;89.51;98368.39;129720;1270;99172;-74
2023/11/25 10:43:04;;;;;;;17.20;9.30;;;;;;;1.59;89.17;98374.16;129560;1270;99168;-72
2023/11/25 10:46:11;;;;;;;16.90;8.00;;;;;;;1.65;88.77;98378.09;129562;1270;98067;-73
2023/11/25 10:49:19;;;;;;;62.40;34.00;;;;;;;1.72;88.55;98378.36;129635;1270;97975;-72
2023/11/25 10:52:26;;;;;;;25.20;10.50;;;;;;;1.83;88.56;98384.31;129510;1270;98020;-72
2023/11/25 10:55:33;;;;;;;26.40;11.40;;;;;;;1.83;88.15;98390.46;129695;1270;97976;-72
2023/11/25 10:58:39;;;;;;;22.80;10.30;;;;;;;1.82;88.24;98390.40;129600;1267;98034;-72
2023/11/25 11:01:46;;;;;;;23.90;11.70;;;;;;;1.84;88.04;98389.30;129591;1270;99201;-74
2023/11/25 11:04:57;;;;;;;23.60;11.80;;;;;;;1.86;87.55;98389.13;129589;1270;98116;-73
2023/11/25 11:08:08;;;;;;;48.60;24.10;;;;;;;1.90;87.59;98386.29;129900;1268;99084;-72
2023/11/25 11:11:17;;;;;;;39.10;24.20;;;;;;;1.93;87.55;98384.27;129917;1267;98020;-72
2023/11/25 11:14:24;;;;;;;264.60;84.60;;;;;;;1.94;87.13;98389.54;129717;1271;98672;-73
2023/11/25 11:17:40;;;;;;;28.90;12.20;;;;;;;1.96;87.48;98385.34;129606;1271;98764;-72
2023/11/25 11:20:49;;;;;;;25.60;11.80;;;;;;;2.00;87.19;98386.59;129563;1270;99124;-72
2023/11/25 11:23:55;;;;;;;110.60;40.70;;;;;;;1.91;86.80;98388.35;129788;1270;98109;-72
2023/11/25 11:27:05;;;;;;;23.00;9.10;;;;;;;1.95;87.57;98395.27;129556;1268;97962;-72
2023/11/25 11:30:22;;;;;;;85.00;37.60;;;;;;;1.99;87.21;98395.45;129596;1267;98647;-72
2023/11/25 11:33:30;;;;;;;45.40;23.10;;;;;;;2.06;86.91;98398.34;129598;1266;99164;-73
2023/11/25 11:36:37;;;;;;;14.30;7.00;;;;;;;2.15;86.45;98401.33;129644;1267;98442;-71
2023/11/25 11:39:58;;;;;;;39.70;17.20;;;;;;;2.11;86.42;98398.34;129659;1270;98010;-72
2023/11/25 11:43:08;;;;;;;87.30;40.50;;;;;;;2.19;86.49;98399.55;129718;1271;97987;-75
2023/11/25 11:47:11;;;;;;;66.30;22.60;;;;;;;2.22;86.79;98397.46;130766;1267;98765;-82
2023/11/25 11:50:22;;;;;;;314.70;92.20;;;;;;;2.09;86.10;98404.00;129878;1270;98039;-82
2023/11/25 11:53:28;;;;;;;440.70;145.50;;;;;;;2.04;86.42;98405.68;129657;1270;99049;-77
2023/11/25 11:57:03;;;;;;;61.80;18.80;;;;;;;2.04;86.59;98406.23;129861;1267;98083;-78
2023/11/25 12:00:13;;;;;;;24.20;8.80;;;;;;;2.02;85.99;98408.31;129389;1271;99072;-79
2023/11/25 12:03:19;;;;;;;565.80;218.90;;;;;;;1.94;86.14;98406.05;129622;1267;97975;-77
2023/11/25 12:06:27;;;;;;;136.60;41.10;;;;;;;2.00;86.59;98402.08;129572;1270;97962;-78
2023/11/25 12:09:33;;;;;;;196.50;64.30;;;;;;;2.00;85.90;98399.11;129646;1281;99161;-77
2023/11/25 12:12:43;;;;;;;284.30;84.40;;;;;;;1.93;86.06;98399.15;129628;1270;97981;-78
2023/11/25 12:15:52;;;;;;;157.70;44.60;;;;;;;1.93;86.35;98402.29;129756;1269;98085;-76
2023/11/25 12:18:57;;;;;;;49.40;14.40;;;;;;;1.95;85.87;98403.92;129643;1267;99074;-76
2023/11/25 12:22:05;;;;;;;201.70;55.60;;;;;;;1.96;85.92;98399.20;129890;1267;97983;-74
2023/11/25 12:25:14;;;;;;;142.10;42.00;;;;;;;2.00;85.89;98403.77;129628;1270;98005;-75
2023/11/25 12:28:19;;;;;;;600.40;199.10;;;;;;;2.05;85.69;98402.13;129780;1268;98094;-82
2023/11/25 12:31:25;;;;;;;22.90;8.40;;;;;;;2.06;85.26;98409.16;129598;1270;97977;-74
2023/11/25 12:34:30;;;;;;;57.40;18.00;;;;;;;1.90;84.06;98407.30;129625;1270;98080;-87
2023/11/25 12:37:36;;;;;;;30.20;11.70;;;;;;;1.83;85.09;98403.45;129716;1266;97987;-78
2023/11/25 12:40:44;;;;;;;49.90;20.60;;;;;;;1.78;85.14;98409.30;129650;1267;98080;-78
2023/11/25 12:44:10;;;;;;;56.10;22.20;;;;;;;1.71;85.31;98407.70;129660;1267;99159;-78
2023/11/25 12:47:16;;;;;;;36.90;23.30;;;;;;;1.72;85.63;98406.58;129597;1270;99161;-76
2023/11/25 12:50:23;;;;;;;12.70;6.60;;;;;;;1.78;85.54;98407.75;130102;1270;98754;-77
2023/11/25 12:53:28;;;;;;;10.30;5.50;;;;;;;1.87;85.39;98410.45;129545;1270;99165;-78
2023/11/25 12:56:37;;;;;;;18.80;9.10;;;;;;;1.91;84.81;98410.23;129586;1273;99147;-75
2023/11/25 12:59:43;;;;;;;15.10;6.70;;;;;;;1.88;83.78;98412.99;129611;1268;98013;-75
2023/11/25 13:02:49;;;;;;;13.30;7.10;;;;;;;1.74;83.17;98411.45;129649;1268;98400;-75
2023/11/25 13:06:01;;;;;;;12.20;7.00;;;;;;;1.66;84.04;98408.40;129574;1267;99087;-77
2023/11/25 13:09:07;;;;;;;13.10;7.40;;;;;;;1.61;84.64;98410.03;130133;1265;98106;-80
2023/11/25 13:12:16;;;;;;;11.80;7.40;;;;;;;1.61;84.81;98406.94;129862;1270;98060;-73
2023/11/25 13:15:22;;;;;;;21.90;10.20;;;;;;;1.64;84.92;98413.13;129701;1270;99244;-76
2023/11/25 13:18:28;;;;;;;25.50;11.00;;;;;;;1.62;84.64;98411.70;129698;1271;98613;-80
2023/11/25 13:21:34;;;;;;;16.50;8.70;;;;;;;1.63;84.24;98417.23;129880;1266;97978;-77
2023/11/25 13:24:39;;;;;;;168.70;55.60;;;;;;;1.63;84.20;98423.21;129996;1267;99233;-79
2023/11/25 13:27:45;;;;;;;180.40;62.60;;;;;;;1.61;83.99;98430.20;129602;1267;98004;-79
2023/11/25 13:30:50;;;;;;;64.80;24.20;;;;;;;1.60;83.98;98428.88;129576;1267;97984;-77
2023/11/25 13:33:56;;;;;;;194.30;63.00;;;;;;;1.61;84.49;98430.57;129586;1267;99205;-78
2023/11/25 13:37:02;;;;;;;261.80;75.20;;;;;;;1.68;84.87;98434.47;129646;1270;99170;-79
2023/11/25 13:40:15;;;;;;;24.60;10.80;;;;;;;1.74;84.08;98442.11;129596;1267;99199;-79
2023/11/25 13:43:20;;;;;;;44.20;16.90;;;;;;;1.69;83.61;98455.55;129629;1268;98137;-78
2023/11/25 13:46:26;;;;;;;15.40;6.70;;;;;;;1.64;83.17;98455.86;129828;1265;98039;-81
2023/11/25 13:49:33;;;;;;;49.40;18.80;;;;;;;1.64;83.98;98459.60;129606;1267;98544;-77
2023/11/25 13:52:39;;;;;;;579.80;192.90;;;;;;;1.62;83.40;98465.54;129588;1269;98010;-79
2023/11/25 13:55:46;;;;;;;93.00;28.60;;;;;;;1.58;83.98;98464.96;129711;1265;97973;-84
2023/11/25 13:58:52;;;;;;;26.60;12.20;;;;;;;1.55;84.02;98470.13;129980;1269;97980;-82
2023/11/25 14:02:00;;;;;;;22.20;11.00;;;;;;;1.43;83.85;98475.08;129896;1270;98115;-80
2023/11/25 14:05:08;;;;;;;23.90;13.80;;;;;;;1.37;84.17;98473.73;129863;1265;98654;-81
2023/11/25 14:08:19;;;;;;;9.80;5.80;;;;;;;1.31;84.49;98477.88;129994;1267;98778;-81
2023/11/25 14:11:25;;;;;;;19.20;10.30;;;;;;;1.30;84.58;98476.43;129666;1270;99052;-80
2023/11/25 14:14:30;;;;;;;36.60;18.40;;;;;;;1.34;84.84;98477.69;129825;1268;99160;-82
2023/11/25 14:17:39;;;;;;;32.40;17.20;;;;;;;1.38;84.92;98479.20;129836;1269;97994;-83
2023/11/25 14:20:44;;;;;;;21.30;12.70;;;;;;;1.43;84.89;98481.94;129857;1265;99095;-79
2023/11/25 14:23:50;;;;;;;9.00;5.40;;;;;;;1.41;85.15;98484.60;129788;1269;98800;-82
2023/11/25 14:26:55;;;;;;;10.40;7.00;;;;;;;1.36;85.18;98484.45;129887;1270;98042;-83